Time;durP1;ratioP1;P1;durP2;ratioP2;P2;SDS_P1;SDS_P2;PMS_P1;PMS_P2;Temp;Humidity;BMP_temperature;BMP_pressure;BME280_temperature;BME280_humidity;BME280_pressure;Samples;Min_cycle;Max_cycle;Signal;HPM_P1;HPM_P2
2022/03/22 00:00:38;;;;;;;20.90;12.90;;;5.00;1.00;;;;;;7360710;19;20017;-61
2022/03/22 00:03:11;;;;;;;17.70;12.18;;;4.90;1.00;;;;;;7363918;19;20502;-61
2022/03/22 00:05:42;;;;;;;21.17;11.35;;;4.90;1.00;;;;;;7364017;19;20017;-61
2022/03/22 00:08:12;;;;;;;21.35;12.55;;;5.00;1.00;;;;;;7390384;19;20013;-65
2022/03/22 00:10:42;;;;;;;20.25;12.60;;;5.10;1.00;;;;;;7391790;19;20007;-61
2022/03/22 00:13:12;;;;;;;22.23;13.13;;;5.10;1.00;;;;;;7364755;19;20069;-61
2022/03/22 00:15:44;;;;;;;20.67;12.60;;;5.00;1.00;;;;;;7363408;19;20006;-60
2022/03/22 00:18:36;;;;;;;19.85;12.07;;;5.00;1.00;;;;;;7369056;19;20501;-60
2022/03/22 00:21:06;;;;;;;18.15;12.40;;;4.90;1.00;;;;;;7367580;19;20006;-61
2022/03/22 00:23:36;;;;;;;21.83;12.85;;;4.90;1.00;;;;;;7362291;19;20010;-62
2022/03/22 00:26:06;;;;;;;21.25;12.57;;;4.80;1.00;;;;;;7388332;19;20014;-61
2022/03/22 00:28:36;;;;;;;20.02;13.45;;;4.70;1.00;;;;;;7368462;19;20020;-61
2022/03/22 00:31:07;;;;;;;18.70;13.30;;;4.60;1.00;;;;;;7368479;19;20025;-60
2022/03/22 00:33:39;;;;;;;20.25;12.82;;;4.60;1.00;;;;;;7362524;19;20006;-62
2022/03/22 00:36:10;;;;;;;20.60;13.35;;;4.40;1.00;;;;;;7362610;19;20022;-62
2022/03/22 00:38:40;;;;;;;24.83;13.75;;;4.40;1.00;;;;;;7367876;19;20010;-62
2022/03/22 00:41:10;;;;;;;23.08;14.20;;;4.30;1.00;;;;;;7388727;19;20018;-60
2022/03/22 00:43:40;;;;;;;33.40;17.55;;;4.30;1.00;;;;;;7360519;19;20021;-61
2022/03/22 00:46:10;;;;;;;33.13;16.80;;;4.20;1.00;;;;;;7365350;19;20016;-61
2022/03/22 00:48:47;;;;;;;30.85;16.15;;;4.20;1.00;;;;;;7366598;19;20028;-61
2022/03/22 00:51:17;;;;;;;22.02;13.73;;;4.10;1.00;;;;;;7368306;19;20485;-61
2022/03/22 00:53:47;;;;;;;26.73;15.77;;;4.10;1.00;;;;;;7362433;19;20010;-61
2022/03/22 00:56:18;;;;;;;20.40;14.25;;;4.00;1.00;;;;;;7366445;19;20010;-63
2022/03/22 01:00:01;;;;;;;21.17;14.13;;;4.00;1.00;;;;;;7389478;19;20078;-61
2022/03/22 01:01:38;;;;;;;26.35;15.68;;;4.00;1.00;;;;;;7366910;19;20002;-61
2022/03/22 01:04:11;;;;;;;28.88;15.68;;;3.90;1.00;;;;;;7360683;19;20007;-61
2022/03/22 01:06:40;;;;;;;31.55;18.27;;;4.00;1.00;;;;;;7365277;19;20126;-61
2022/03/22 01:09:10;;;;;;;29.77;16.42;;;4.00;1.00;;;;;;7368444;19;20015;-62
2022/03/22 01:11:55;;;;;;;28.63;16.35;;;4.00;1.00;;;;;;7365847;19;20057;-61
2022/03/22 01:14:28;;;;;;;27.60;15.65;;;3.90;1.00;;;;;;7356284;19;20010;-62
2022/03/22 01:16:58;;;;;;;32.38;17.27;;;3.80;1.00;;;;;;7384745;19;20011;-62
2022/03/22 01:19:35;;;;;;;28.58;17.33;;;3.80;1.00;;;;;;7364723;19;20014;-62
2022/03/22 01:22:05;;;;;;;32.55;17.80;;;3.80;1.00;;;;;;7363652;19;20007;-62
2022/03/22 01:24:35;;;;;;;30.40;17.23;;;3.70;1.00;;;;;;7358654;19;20477;-61
2022/03/22 01:27:05;;;;;;;33.80;17.42;;;3.60;1.00;;;;;;7361778;19;20017;-62
2022/03/22 01:29:35;;;;;;;33.70;16.85;;;3.70;1.00;;;;;;7363739;19;20014;-62
2022/03/22 01:32:06;;;;;;;32.55;19.35;;;3.70;1.00;;;;;;7386277;19;20441;-61
2022/03/22 01:34:39;;;;;;;32.35;17.77;;;3.60;1.00;;;;;;7357778;19;20010;-61
2022/03/22 01:37:08;;;;;;;32.13;18.63;;;3.70;1.00;;;;;;7362034;19;20121;-61
2022/03/22 01:39:38;;;;;;;26.60;15.20;;;3.70;1.00;;;;;;7364107;19;20006;-61
2022/03/22 01:42:09;;;;;;;26.33;15.90;;;3.60;1.00;;;;;;7363833;19;20007;-61
2022/03/22 01:44:39;;;;;;;24.20;15.13;;;3.50;1.00;;;;;;7358503;19;20017;-61
2022/03/22 01:47:09;;;;;;;25.15;16.05;;;3.40;1.00;;;;;;7387766;19;20040;-61
2022/03/22 01:49:42;;;;;;;26.20;15.95;;;3.40;1.00;;;;;;7363865;19;20007;-61
2022/03/22 01:52:16;;;;;;;26.08;15.40;;;3.40;1.00;;;;;;7365443;19;20021;-61
2022/03/22 01:54:46;;;;;;;26.63;16.35;;;3.50;1.00;;;;;;7360649;19;20021;-61
2022/03/22 01:57:17;;;;;;;29.30;16.67;;;3.40;1.00;;;;;;7363743;19;20007;-61
2022/03/22 01:59:47;;;;;;;27.23;16.67;;;3.30;1.00;;;;;;7366348;19;20086;-61
2022/03/22 02:07:47;;;;;;;29.48;16.33;;;3.20;1.00;;;;;;7364233;19;20070;-61
2022/03/22 02:10:18;;;;;;;26.08;16.90;;;3.20;1.00;;;;;;7364480;19;20006;-62
2022/03/22 02:12:48;;;;;;;26.40;17.08;;;3.20;1.00;;;;;;7363515;19;20081;-61
2022/03/22 02:15:18;;;;;;;29.83;17.00;;;3.20;1.00;;;;;;7361845;19;20019;-61
2022/03/22 02:17:48;;;;;;;24.58;15.32;;;3.20;1.00;;;;;;7363619;19;20010;-61
2022/03/22 02:20:20;;;;;;;26.55;15.82;;;3.30;1.00;;;;;;7366023;19;20085;-61
2022/03/22 02:22:54;;;;;;;30.08;17.20;;;3.30;1.00;;;;;;7381681;19;20362;-62
2022/03/22 02:25:27;;;;;;;29.08;16.38;;;3.30;1.00;;;;;;7359685;19;20078;-62
2022/03/22 02:27:57;;;;;;;27.65;16.77;;;3.30;1.00;;;;;;7361812;19;20353;-61
2022/03/22 02:30:27;;;;;;;25.20;15.65;;;3.40;1.00;;;;;;7366747;19;20102;-61
2022/03/22 02:33:01;;;;;;;22.83;15.38;;;3.40;1.00;;;;;;7362486;19;20023;-61
2022/03/22 02:35:32;;;;;;;26.15;16.60;;;3.30;1.00;;;;;;7361125;19;20600;-61
2022/03/22 02:38:03;;;;;;;23.08;15.68;;;3.40;1.00;;;;;;7384950;19;20016;-61
2022/03/22 02:40:35;;;;;;;25.73;16.30;;;3.30;1.00;;;;;;7364613;19;20087;-62
2022/03/22 02:43:05;;;;;;;24.08;16.05;;;3.30;1.00;;;;;;7360306;19;20105;-61
2022/03/22 02:45:35;;;;;;;26.85;16.38;;;3.30;1.00;;;;;;7362896;19;20002;-62
2022/03/22 02:48:06;;;;;;;23.58;15.77;;;3.20;1.00;;;;;;7362601;19;20066;-61
2022/03/22 02:50:36;;;;;;;22.00;14.95;;;3.00;1.00;;;;;;7366300;19;20016;-61
2022/03/22 02:53:05;;;;;;;24.38;15.73;;;2.90;1.00;;;;;;7381987;19;20094;-61
2022/03/22 02:55:39;;;;;;;24.85;15.68;;;3.10;1.00;;;;;;7361841;19;20336;-61
2022/03/22 02:58:08;;;;;;;23.23;15.77;;;3.00;1.00;;;;;;7362702;19;20094;-61
2022/03/22 03:00:38;;;;;;;23.52;15.10;;;2.90;1.00;;;;;;7364357;19;20109;-61
2022/03/22 03:03:08;;;;;;;25.45;15.98;;;2.90;1.00;;;;;;7359956;19;20507;-60
2022/03/22 03:05:38;;;;;;;28.63;15.05;;;3.00;1.00;;;;;;7361023;19;20064;-61
2022/03/22 03:08:08;;;;;;;23.05;15.77;;;3.00;1.00;;;;;;7384275;19;20014;-61
2022/03/22 03:10:41;;;;;;;22.58;15.30;;;2.90;1.00;;;;;;7364672;19;20015;-61
2022/03/22 03:13:11;;;;;;;28.90;16.85;;;3.10;1.00;;;;;;7357621;19;20014;-61
2022/03/22 03:15:41;;;;;;;27.17;16.23;;;3.10;1.00;;;;;;7363340;19;20023;-61
2022/03/22 03:18:13;;;;;;;23.35;15.88;;;3.00;1.00;;;;;;7362448;19;20017;-61
2022/03/22 03:20:42;;;;;;;26.02;16.63;;;3.00;1.00;;;;;;7363759;19;20330;-61
2022/03/22 03:23:12;;;;;;;23.40;16.00;;;3.00;1.00;;;;;;7376539;19;20105;-62
2022/03/22 03:25:45;;;;;;;25.25;16.30;;;2.90;1.00;;;;;;7383525;19;20014;-61
2022/03/22 03:28:15;;;;;;;30.70;17.20;;;2.80;1.00;;;;;;7361622;19;20021;-61
2022/03/22 03:30:44;;;;;;;29.65;16.85;;;2.70;1.00;;;;;;7362970;19;20370;-61
2022/03/22 03:33:14;;;;;;;29.13;16.77;;;2.70;1.00;;;;;;7358030;19;20477;-61
2022/03/22 03:35:44;;;;;;;27.60;17.15;;;2.80;1.00;;;;;;7362066;19;20478;-61
2022/03/22 03:38:14;;;;;;;21.67;15.77;;;2.70;1.00;;;;;;7362770;19;20099;-62
2022/03/22 03:43:28;;;;;;;;;;;2.60;1.00;;;;;;7355124;19;20031;-62
2022/03/22 03:48:41;;;;;;;25.77;17.02;;;2.60;1.00;;;;;;7363302;19;20388;-61
2022/03/22 03:51:10;;;;;;;24.60;15.63;;;2.60;1.00;;;;;;7362992;19;20010;-62
2022/03/22 03:53:40;;;;;;;26.40;17.05;;;2.50;1.00;;;;;;7357368;19;20014;-61
2022/03/22 03:56:13;;;;;;;29.92;18.05;;;2.40;1.00;;;;;;7381777;19;20100;-61
2022/03/22 03:58:46;;;;;;;29.88;18.80;;;2.40;1.00;;;;;;7362618;19;20077;-61
2022/03/22 04:01:16;;;;;;;30.55;18.13;;;2.30;1.00;;;;;;7362735;19;20010;-61
2022/03/22 04:03:47;;;;;;;32.75;19.27;;;2.20;1.00;;;;;;7356293;19;20032;-61
2022/03/22 04:06:17;;;;;;;32.63;19.42;;;2.50;1.00;;;;;;7358062;19;20015;-61
2022/03/22 04:08:47;;;;;;;29.08;18.25;;;2.40;1.00;;;;;;7361873;19;20100;-61
2022/03/22 04:11:20;;;;;;;27.58;17.48;;;2.20;1.00;;;;;;7363334;19;20348;-61
2022/03/22 04:13:50;;;;;;;25.55;17.17;;;2.20;1.00;;;;;;7377850;19;20029;-61
2022/03/22 04:16:20;;;;;;;25.73;17.73;;;2.10;1.00;;;;;;7359036;19;20010;-61
2022/03/22 04:18:51;;;;;;;27.50;17.20;;;2.10;1.00;;;;;;7361217;19;20046;-61
2022/03/22 04:21:20;;;;;;;24.45;16.92;;;2.10;1.00;;;;;;7362228;19;20586;-61
2022/03/22 04:23:51;;;;;;;30.15;18.75;;;2.00;1.00;;;;;;7355563;19;20015;-61
2022/03/22 04:26:24;;;;;;;28.73;18.60;;;2.00;1.00;;;;;;7359193;19;20350;-61
2022/03/22 04:34:19;;;;;;;29.05;18.48;;;1.80;1.00;;;;;;7353574;19;20401;-61
2022/03/22 04:36:55;;;;;;;31.80;18.15;;;1.80;1.00;;;;;;7358315;19;20446;-62
2022/03/22 04:39:25;;;;;;;26.17;17.75;;;1.80;1.00;;;;;;7360175;19;20007;-61
2022/03/22 04:41:59;;;;;;;30.17;18.73;;;1.80;1.00;;;;;;7361892;19;20421;-62
2022/03/22 04:44:30;;;;;;;28.23;18.20;;;1.80;1.00;;;;;;7356038;19;20417;-59
2022/03/22 04:47:01;;;;;;;30.58;18.08;;;1.70;1.00;;;;;;7380255;19;20090;-60
2022/03/22 04:49:32;;;;;;;28.92;19.10;;;1.70;1.00;;;;;;7362565;19;20035;-61
2022/03/22 04:57:29;;;;;;;27.35;18.35;;;1.60;1.00;;;;;;7366211;19;20031;-60
2022/03/22 04:59:59;;;;;;;30.05;19.70;;;1.70;1.00;;;;;;7367955;19;20011;-60
2022/03/22 05:02:29;;;;;;;27.27;18.50;;;1.70;1.00;;;;;;7366398;19;20010;-59
2022/03/22 05:05:00;;;;;;;29.33;19.02;;;1.80;1.00;;;;;;7383682;19;20010;-60
2022/03/22 05:07:30;;;;;;;28.08;19.00;;;1.80;1.00;;;;;;7363084;19;20023;-60
2022/03/22 05:10:00;;;;;;;32.55;20.25;;;1.90;1.00;;;;;;7367172;19;20022;-60
2022/03/22 05:12:32;;;;;;;29.63;19.75;;;1.90;1.00;;;;;;7365399;19;20033;-60
2022/03/22 05:15:03;;;;;;;32.17;20.42;;;1.80;1.00;;;;;;7363521;19;20786;-59
2022/03/22 05:17:33;;;;;;;28.38;18.77;;;1.70;1.00;;;;;;7365150;19;20802;-60
2022/03/22 05:20:04;;;;;;;34.22;19.73;;;1.60;1.00;;;;;;7388377;19;20474;-61
2022/03/22 05:22:37;;;;;;;30.30;20.02;;;1.70;1.00;;;;;;7365698;19;20036;-61
2022/03/22 05:25:09;;;;;;;34.10;20.23;;;1.70;1.00;;;;;;7362011;19;20443;-61
2022/03/22 05:27:42;;;;;;;32.33;19.10;;;1.70;1.00;;;;;;7364095;19;20021;-61
2022/03/22 05:30:13;;;;;;;31.48;20.73;;;1.70;1.00;;;;;;7366544;19;20029;-61
2022/03/22 05:32:43;;;;;;;29.23;18.48;;;1.70;1.00;;;;;;7364481;19;20014;-61
2022/03/22 05:35:13;;;;;;;30.35;19.58;;;1.70;1.00;;;;;;7370368;19;20020;-62
2022/03/22 05:37:43;;;;;;;33.35;20.08;;;1.80;1.00;;;;;;7385812;19;20478;-61
2022/03/22 05:40:16;;;;;;;31.60;20.02;;;1.90;1.00;;;;;;7365020;19;20014;-61
2022/03/22 05:42:49;;;;;;;33.95;21.20;;;2.10;1.00;;;;;;7364182;19;20027;-60
2022/03/22 05:45:19;;;;;;;33.05;19.77;;;2.20;1.00;;;;;;7359918;19;20011;-61
2022/03/22 05:47:49;;;;;;;32.17;20.35;;;2.30;1.00;;;;;;7362084;19;20390;-61
2022/03/22 05:50:19;;;;;;;33.08;20.45;;;2.50;1.00;;;;;;7365517;19;20496;-62
2022/03/22 05:52:52;;;;;;;29.73;18.55;;;2.60;1.00;;;;;;7385597;19;20482;-61
2022/03/22 05:55:22;;;;;;;33.95;20.00;;;2.80;1.00;;;;;;7359513;19;20486;-62
2022/03/22 05:57:54;;;;;;;33.47;19.38;;;2.80;1.00;;;;;;7363317;19;20017;-60
2022/03/22 06:00:24;;;;;;;29.20;18.17;;;3.00;1.00;;;;;;7365141;19;20017;-62
2022/03/22 06:02:55;;;;;;;33.70;20.20;;;3.00;1.00;;;;;;7363548;19;20010;-60
2022/03/22 06:05:25;;;;;;;29.83;19.00;;;3.10;1.00;;;;;;7359309;19;20092;-61
2022/03/22 06:07:54;;;;;;;33.90;20.85;;;3.20;1.00;;;;;;7384328;19;20015;-61
2022/03/22 06:10:25;;;;;;;31.27;19.50;;;3.20;1.00;;;;;;7364124;19;20783;-62
2022/03/22 06:12:58;;;;;;;30.20;19.08;;;3.30;1.00;;;;;;7364973;19;20010;-61
2022/03/22 06:15:30;;;;;;;31.58;19.77;;;3.40;1.00;;;;;;7359904;19;20010;-61
2022/03/22 06:18:02;;;;;;;36.97;20.60;;;3.50;1.00;;;;;;7362634;19;20283;-61
2022/03/22 06:20:35;;;;;;;31.10;19.50;;;3.50;1.00;;;;;;7363950;19;20023;-60
2022/03/22 06:23:07;;;;;;;32.60;18.90;;;3.60;1.00;;;;;;7385418;19;20018;-61
2022/03/22 06:25:37;;;;;;;30.08;19.75;;;3.70;1.00;;;;;;7361117;19;20530;-61
2022/03/22 06:28:14;;;;;;;32.50;18.90;;;3.70;1.00;;;;;;7362179;19;20013;-62
2022/03/22 06:30:45;;;;;;;30.48;18.63;;;3.80;1.00;;;;;;7361768;19;20010;-62
2022/03/22 06:33:17;;;;;;;31.85;19.35;;;4.00;1.00;;;;;;7359171;19;20019;-61
2022/03/22 06:35:49;;;;;;;34.20;18.92;;;4.10;1.00;;;;;;7361374;19;20564;-61
2022/03/22 06:38:19;;;;;;;30.75;18.70;;;4.20;1.00;;;;;;7362651;19;20034;-61
2022/03/22 06:40:50;;;;;;;31.50;17.48;;;4.30;1.00;;;;;;7385274;19;20007;-61
2022/03/22 06:43:23;;;;;;;33.40;18.83;;;4.50;1.00;;;;;;7358735;19;20074;-61
2022/03/22 06:45:53;;;;;;;28.75;17.98;;;4.70;1.00;;;;;;7361374;19;20081;-62
2022/03/22 06:48:26;;;;;;;29.77;16.38;;;4.70;1.00;;;;;;7360513;19;20374;-61
2022/03/22 06:50:55;;;;;;;24.55;16.30;;;4.80;1.00;;;;;;7363765;19;20473;-61
2022/03/22 06:53:25;;;;;;;30.58;17.10;;;5.00;1.00;;;;;;7357121;19;20109;-63
2022/03/22 06:55:55;;;;;;;26.90;15.23;;;5.10;1.00;;;;;;7384141;19;20014;-60
2022/03/22 06:58:30;;;;;;;24.40;15.45;;;5.20;1.00;;;;;;7360638;19;20018;-61
2022/03/22 07:01:00;;;;;;;22.63;14.68;;;5.30;1.00;;;;;;7363542;19;20003;-61
2022/03/22 07:03:30;;;;;;;21.75;14.35;;;5.40;1.00;;;;;;7357492;19;20682;-61
2022/03/22 07:06:00;;;;;;;21.58;14.50;;;5.30;1.00;;;;;;7362784;19;20096;-61
2022/03/22 07:08:30;;;;;;;22.25;14.10;;;5.50;1.00;;;;;;7361815;19;20013;-61
2022/03/22 07:13:45;;;;;;;28.80;15.13;;;5.60;1.00;;;;;;7356041;19;20036;-61
2022/03/22 07:16:15;;;;;;;29.17;15.93;;;5.70;1.00;;;;;;7360286;19;20078;-60
2022/03/22 07:18:45;;;;;;;21.30;14.70;;;5.80;1.00;;;;;;7362992;19;20517;-61
2022/03/22 07:21:15;;;;;;;22.95;14.35;;;5.90;1.00;;;;;;7363106;19;20711;-61
2022/03/22 07:23:45;;;;;;;30.75;16.08;;;6.00;1.00;;;;;;7356999;19;20038;-61
2022/03/22 07:26:16;;;;;;;25.70;15.32;;;6.10;1.00;;;;;;7359900;19;20037;-63
2022/03/22 07:28:49;;;;;;;24.30;14.55;;;6.10;1.00;;;;;;7384105;19;20022;-60
2022/03/22 07:31:19;;;;;;;23.33;14.07;;;6.30;1.00;;;;;;7359783;19;20010;-60
2022/03/22 07:33:49;;;;;;;22.92;14.32;;;6.10;1.00;;;;;;7355674;19;20478;-60
2022/03/22 07:36:19;;;;;;;23.48;14.00;;;6.30;1.00;;;;;;7359544;19;20023;-62
2022/03/22 07:39:10;;;;;;;22.63;13.93;;;6.30;1.00;;;;;;7361402;19;20017;-61
2022/03/22 07:41:43;;;;;;;24.02;14.93;;;6.40;1.00;;;;;;7362549;19;20021;-61
2022/03/22 07:44:15;;;;;;;27.73;14.27;;;6.60;1.00;;;;;;7370902;19;20018;-62
2022/03/22 07:46:47;;;;;;;22.95;13.68;;;6.40;1.00;;;;;;7381685;19;20681;-61
2022/03/22 07:54:43;;;;;;;24.10;12.95;;;6.40;1.00;;;;;;7353920;19;20086;-61
2022/03/22 07:57:12;;;;;;;24.40;13.35;;;6.60;1.00;;;;;;7358803;19;20612;-61
2022/03/22 07:59:45;;;;;;;20.88;12.80;;;6.70;1.00;;;;;;7360759;19;20041;-62
2022/03/22 08:02:15;;;;;;;21.30;13.55;;;6.70;1.00;;;;;;7361434;19;20017;-61
2022/03/22 08:04:45;;;;;;;20.73;12.88;;;6.90;1.00;;;;;;7375216;19;20025;-62
2022/03/22 08:07:15;;;;;;;18.85;12.07;;;7.20;1.00;;;;;;7358370;19;20010;-61
2022/03/22 08:09:46;;;;;;;18.23;11.80;;;7.40;1.00;;;;;;7359530;19;20014;-61
2022/03/22 08:12:16;;;;;;;21.05;12.30;;;7.30;1.00;;;;;;7361156;19;20070;-61
2022/03/22 08:14:48;;;;;;;20.20;11.57;;;7.30;1.00;;;;;;7352465;19;20095;-61
2022/03/22 08:17:18;;;;;;;17.98;11.23;;;7.60;1.00;;;;;;7359292;19;20018;-61
2022/03/22 08:19:48;;;;;;;17.27;11.15;;;7.80;1.00;;;;;;7383840;19;20014;-60
2022/03/22 08:22:18;;;;;;;20.65;12.18;;;8.00;1.00;;;;;;7359238;19;20011;-61
2022/03/22 08:24:48;;;;;;;17.63;11.90;;;7.80;1.00;;;;;;7358787;19;20018;-60
2022/03/22 08:27:18;;;;;;;16.85;10.38;;;8.00;1.00;;;;;;7365918;19;20025;-61
2022/03/22 08:29:51;;;;;;;19.15;12.35;;;8.30;1.00;;;;;;7369132;19;20529;-61
2022/03/22 08:32:21;;;;;;;17.33;11.57;;;8.20;1.00;;;;;;7366854;19;20400;-62
2022/03/22 08:34:51;;;;;;;21.40;11.93;;;8.40;1.00;;;;;;7383384;19;20014;-61
2022/03/22 08:37:21;;;;;;;20.42;13.07;;;8.70;1.00;;;;;;7365705;19;20006;-60
2022/03/22 08:39:51;;;;;;;20.83;13.23;;;8.80;1.00;;;;;;7366627;19;20143;-61
2022/03/22 08:42:20;;;;;;;21.60;13.82;;;8.90;1.00;;;;;;7368818;19;20014;-61
2022/03/22 08:44:53;;;;;;;19.25;12.07;;;8.80;1.00;;;;;;7362497;19;20082;-61
2022/03/22 08:47:23;;;;;;;23.15;13.38;;;8.50;1.00;;;;;;7364437;19;20021;-60
2022/03/22 08:49:52;;;;;;;22.67;13.23;;;8.80;1.00;;;;;;7389441;19;20070;-60
2022/03/22 08:52:22;;;;;;;20.95;13.52;;;8.90;1.00;;;;;;7365136;19;20006;-60
2022/03/22 08:54:53;;;;;;;21.00;12.63;;;9.30;1.00;;;;;;7360565;19;20021;-61
2022/03/22 08:57:23;;;;;;;18.40;13.57;;;9.20;1.00;;;;;;7364370;19;20014;-61
2022/03/22 08:59:55;;;;;;;19.63;12.82;;;9.20;1.00;;;;;;7367246;19;20792;-61
2022/03/22 09:02:25;;;;;;;19.92;13.10;;;9.00;1.00;;;;;;7366300;19;20028;-61
2022/03/22 09:07:38;;;;;;;18.63;12.85;;;9.40;1.00;;;;;;7364539;19;20466;-60
2022/03/22 09:10:09;;;;;;;19.55;12.95;;;9.50;1.00;;;;;;7366738;19;20003;-61
2022/03/22 09:12:39;;;;;;;18.60;12.38;;;9.50;1.00;;;;;;7359607;19;20056;-60
2022/03/22 09:15:13;;;;;;;22.90;13.65;;;9.80;1.00;;;;;;7360911;19;20098;-63
2022/03/22 09:17:43;;;;;;;24.48;13.77;;;9.90;1.00;;;;;;7363773;19;20002;-61
2022/03/22 09:20:14;;;;;;;23.20;14.18;;;9.90;1.00;;;;;;7373535;19;20014;-62
2022/03/22 09:22:46;;;;;;;22.15;13.73;;;10.20;1.00;;;;;;7383435;19;20412;-62
2022/03/22 09:25:16;;;;;;;22.17;13.38;;;10.50;1.00;;;;;;7358077;19;20064;-62
2022/03/22 09:27:47;;;;;;;21.67;13.63;;;10.20;1.00;;;;;;7361179;19;20054;-61
2022/03/22 09:30:20;;;;;;;23.80;13.13;;;10.30;1.00;;;;;;7361278;19;20023;-61
2022/03/22 09:32:50;;;;;;;21.55;13.38;;;10.40;1.00;;;;;;7360719;19;20021;-61
2022/03/22 09:35:21;;;;;;;22.70;14.02;;;10.40;1.00;;;;;;7357550;19;20018;-61
2022/03/22 09:37:51;;;;;;;24.92;14.02;;;10.60;1.00;;;;;;7384482;19;20078;-60
2022/03/22 09:40:22;;;;;;;21.20;12.98;;;10.70;1.00;;;;;;7364515;19;20021;-61
2022/03/22 09:42:54;;;;;;;23.83;13.65;;;11.10;1.00;;;;;;7363907;19;20449;-61
2022/03/22 09:45:33;;;;;;;20.98;13.77;;;10.90;1.00;;;;;;7361678;19;20454;-61
2022/03/22 09:48:03;;;;;;;21.08;12.95;;;11.00;1.00;;;;;;7364376;19;20090;-61
2022/03/22 09:53:18;;;;;;;22.67;14.05;;;11.10;1.00;;;;;;7360191;19;20010;-62
2022/03/22 09:55:48;;;;;;;23.25;12.95;;;11.40;1.00;;;;;;7385069;19;20024;-61
2022/03/22 09:58:18;;;;;;;20.35;13.20;;;11.60;1.00;;;;;;7363598;19;20021;-61
2022/03/22 10:00:51;;;;;;;19.92;13.65;;;11.40;1.00;;;;;;7364645;19;20031;-63
2022/03/22 10:03:22;;;;;;;21.33;12.98;;;11.20;1.00;;;;;;7358419;19;20522;-61
2022/03/22 10:06:00;;;;;;;19.83;13.65;;;11.20;1.00;;;;;;7363113;19;20084;-61
2022/03/22 10:08:30;;;;;;;22.00;13.32;;;11.20;1.00;;;;;;7362585;19;20014;-62
2022/03/22 10:11:06;;;;;;;19.13;13.15;;;11.50;1.00;;;;;;7382299;19;20014;-61
2022/03/22 10:13:52;;;;;;;19.17;12.88;;;11.50;1.00;;;;;;7358544;19;20470;-61
2022/03/22 10:16:25;;;;;;;17.50;12.07;;;12.00;1.00;;;;;;7362608;19;20082;-61
2022/03/22 10:18:55;;;;;;;23.08;13.73;;;12.30;1.00;;;;;;7364340;19;20011;-62
2022/03/22 10:21:25;;;;;;;21.13;13.45;;;12.40;1.00;;;;;;7363819;19;20717;-62
2022/03/22 10:23:57;;;;;;;22.15;13.75;;;11.80;1.00;;;;;;7359694;19;20521;-63
2022/03/22 10:26:35;;;;;;;21.50;13.70;;;11.60;1.00;;;;;;7362203;19;20300;-63
2022/03/22 10:29:06;;;;;;;19.50;13.13;;;11.80;1.00;;;;;;7384876;19;20022;-63
2022/03/22 10:31:40;;;;;;;22.60;13.65;;;12.00;1.00;;;;;;7363512;19;20118;-64
2022/03/22 10:34:12;;;;;;;23.00;13.55;;;12.10;1.00;;;;;;7357424;19;20030;-63
2022/03/22 10:36:43;;;;;;;20.15;13.48;;;12.20;1.00;;;;;;7360262;19;20541;-63
2022/03/22 10:39:14;;;;;;;20.02;13.68;;;12.30;1.00;;;;;;7363987;19;20541;-62
2022/03/22 10:41:47;;;;;;;20.58;13.60;;;12.40;1.00;;;;;;7364670;19;20078;-63
2022/03/22 10:44:18;;;;;;;21.10;13.32;;;12.20;1.00;;;;;;7358580;19;20015;-63
2022/03/22 10:46:51;;;;;;;19.42;13.35;;;12.40;1.00;;;;;;7378801;19;20010;-63
2022/03/22 10:49:21;;;;;;;21.92;13.63;;;12.30;1.00;;;;;;7362998;19;20117;-63
2022/03/22 10:52:14;;;;;;;19.30;13.80;;;12.30;1.00;;;;;;7361698;19;20025;-62
2022/03/22 10:54:45;;;;;;;19.80;14.02;;;12.50;1.00;;;;;;7356084;19;20101;-63
2022/03/22 10:57:17;;;;;;;19.85;13.70;;;12.80;1.00;;;;;;7361532;19;20009;-62
2022/03/22 10:59:50;;;;;;;22.50;13.60;;;12.60;1.00;;;;;;7364004;19;20082;-62
2022/03/22 11:02:25;;;;;;;18.20;13.50;;;12.80;1.00;;;;;;7364579;19;20022;-63
2022/03/22 11:04:58;;;;;;;21.30;14.77;;;12.90;1.00;;;;;;7379304;19;20010;-62
2022/03/22 11:07:28;;;;;;;18.65;12.95;;;12.80;1.00;;;;;;7359060;19;20019;-63
2022/03/22 11:10:01;;;;;;;19.27;13.98;;;13.10;1.00;;;;;;7363714;19;20442;-63
2022/03/22 11:12:37;;;;;;;23.40;14.77;;;13.20;1.00;;;;;;7361909;19;20518;-62
2022/03/22 11:15:09;;;;;;;19.95;13.40;;;13.20;1.00;;;;;;7358007;19;20749;-63
2022/03/22 11:17:43;;;;;;;19.00;12.95;;;13.20;1.00;;;;;;7361014;19;20014;-63
2022/03/22 11:20:15;;;;;;;20.45;14.38;;;13.10;1.00;;;;;;7380017;19;20017;-64
2022/03/22 11:22:54;;;;;;;20.60;13.48;;;13.20;1.00;;;;;;7382830;19;20006;-62
2022/03/22 11:25:31;;;;;;;22.27;13.55;;;13.30;1.00;;;;;;7357325;19;20509;-62
2022/03/22 11:28:06;;;;;;;22.40;14.10;;;13.50;1.00;;;;;;7360193;19;20085;-64
2022/03/22 11:30:37;;;;;;;18.77;14.07;;;13.70;1.00;;;;;;7361892;19;20020;-63
2022/03/22 11:35:57;;;;;;;18.95;14.10;;;13.70;1.00;;;;;;7360221;19;20009;-62
2022/03/22 11:38:54;;;;;;;20.00;13.43;;;13.60;1.00;;;;;;7358676;19;20369;-63
2022/03/22 11:44:14;;;;;;;19.77;13.18;;;13.60;1.00;;;;;;7377481;19;20022;-63
2022/03/22 11:46:45;;;;;;;22.35;13.85;;;13.50;1.00;;;;;;7357610;19;20466;-63
2022/03/22 11:49:23;;;;;;;18.73;14.02;;;13.80;1.00;;;;;;7358144;19;20011;-63
2022/03/22 11:51:55;;;;;;;19.92;13.85;;;13.90;1.00;;;;;;7361310;19;20049;-62
2022/03/22 11:54:27;;;;;;;19.52;13.77;;;13.90;1.00;;;;;;7356358;19;20003;-62
2022/03/22 11:57:00;;;;;;;22.00;14.25;;;13.80;1.00;;;;;;7357664;19;20014;-62
2022/03/22 11:59:41;;;;;;;23.17;14.40;;;14.00;1.00;;;;;;7366510;19;20043;-64
2022/03/22 12:02:16;;;;;;;22.35;14.25;;;14.30;1.00;;;;;;7390878;19;20040;-64
2022/03/22 12:04:54;;;;;;;19.63;14.02;;;14.30;1.00;;;;;;7363347;19;20037;-62
2022/03/22 12:07:27;;;;;;;20.88;14.18;;;14.60;1.00;;;;;;7364355;19;20006;-63
2022/03/22 12:10:06;;;;;;;22.13;14.00;;;14.70;1.00;;;;;;7368050;19;20485;-62
2022/03/22 12:12:37;;;;;;;22.48;14.18;;;14.70;1.00;;;;;;7366366;19;20474;-62
2022/03/22 12:15:10;;;;;;;21.42;14.45;;;14.90;1.00;;;;;;7362484;19;20011;-63
2022/03/22 12:17:40;;;;;;;18.98;14.07;;;15.00;1.00;;;;;;7365290;19;20015;-63
2022/03/22 12:20:17;;;;;;;22.35;15.07;;;14.80;1.00;;;;;;7389842;19;20029;-64
2022/03/22 12:22:48;;;;;;;21.55;14.93;;;14.60;1.00;;;;;;7365132;19;20085;-62
2022/03/22 12:25:20;;;;;;;19.88;14.27;;;14.60;1.00;;;;;;7361237;19;20022;-64
2022/03/22 12:27:57;;;;;;;19.60;14.32;;;14.90;1.00;;;;;;7362274;19;20018;-64
2022/03/22 12:30:29;;;;;;;21.05;15.18;;;14.90;1.00;;;;;;7367806;19;20024;-63
2022/03/22 12:33:06;;;;;;;24.52;14.82;;;14.90;1.00;;;;;;7365479;19;20022;-63
2022/03/22 12:35:39;;;;;;;21.42;14.23;;;14.80;1.00;;;;;;7362378;19;20094;-63
2022/03/22 12:38:10;;;;;;;18.77;13.57;;;14.80;1.00;;;;;;7386426;19;20023;-63
2022/03/22 12:40:40;;;;;;;20.60;14.55;;;15.10;1.00;;;;;;7367351;19;20458;-62
2022/03/22 12:43:13;;;;;;;20.65;14.50;;;15.00;1.00;;;;;;7363112;19;20015;-62
2022/03/22 12:45:47;;;;;;;19.40;14.80;;;15.20;1.00;;;;;;7364429;19;20022;-65
2022/03/22 12:48:18;;;;;;;22.33;14.23;;;15.20;1.00;;;;;;7364483;19;20245;-64
2022/03/22 12:50:56;;;;;;;19.17;13.75;;;15.60;1.00;;;;;;7364618;19;20593;-63
2022/03/22 12:53:26;;;;;;;20.10;14.88;;;15.30;1.00;;;;;;7362057;19;20595;-62
2022/03/22 12:55:56;;;;;;;21.30;14.25;;;15.20;1.00;;;;;;7386498;19;20015;-63
2022/03/22 12:58:30;;;;;;;19.88;13.75;;;15.20;1.00;;;;;;7362778;19;20014;-63
2022/03/22 13:01:00;;;;;;;25.13;16.23;;;15.30;1.00;;;;;;7366230;19;20519;-63
2022/03/22 13:03:31;;;;;;;23.05;15.13;;;15.40;1.00;;;;;;7360194;19;20010;-63
2022/03/22 13:06:04;;;;;;;22.13;14.45;;;15.40;1.00;;;;;;7364828;19;20010;-62
2022/03/22 13:11:30;;;;;;;24.10;15.48;;;15.60;1.00;;;;;;7364632;19;20015;-64
2022/03/22 13:16:44;;;;;;;24.65;14.43;;;15.40;1.00;;;;;;7365342;19;20027;-63
2022/03/22 13:19:15;;;;;;;22.58;14.30;;;15.50;1.00;;;;;;7367306;19;20400;-64
2022/03/22 13:21:48;;;;;;;21.92;14.18;;;15.50;1.00;;;;;;7366679;19;20082;-64
2022/03/22 13:24:24;;;;;;;24.85;15.07;;;15.70;1.00;;;;;;7358014;19;20014;-63
2022/03/22 13:26:56;;;;;;;22.85;14.38;;;15.80;1.00;;;;;;7362330;19;20094;-63
2022/03/22 13:29:35;;;;;;;24.48;15.13;;;15.90;1.00;;;;;;7367319;19;20015;-63
2022/03/22 13:32:07;;;;;;;19.10;13.65;;;15.80;1.00;;;;;;7388514;19;20021;-63
2022/03/22 13:34:38;;;;;;;21.08;14.40;;;15.90;1.00;;;;;;7359421;19;20007;-63
2022/03/22 13:37:13;;;;;;;22.70;14.00;;;16.10;1.00;;;;;;7362779;19;20110;-64
2022/03/22 13:39:44;;;;;;;18.95;14.10;;;16.20;1.00;;;;;;7365538;19;20580;-62
2022/03/22 13:42:15;;;;;;;23.98;14.13;;;16.10;1.00;;;;;;7364338;19;20011;-63
2022/03/22 13:44:51;;;;;;;19.25;14.52;;;16.10;1.00;;;;;;7357771;19;20561;-64
2022/03/22 13:47:32;;;;;;;22.90;14.80;;;16.10;1.00;;;;;;7361742;19;20023;-62
2022/03/22 13:50:11;;;;;;;19.42;14.15;;;16.00;1.00;;;;;;7387077;19;20016;-63
2022/03/22 13:52:45;;;;;;;19.05;14.13;;;16.10;1.00;;;;;;7361666;19;20078;-63